Time;durP1;ratioP1;P1;durP2;ratioP2;P2;SDS_P1;SDS_P2;PMS_P1;PMS_P2;Temp;Humidity;BMP_temperature;BMP_pressure;BME280_temperature;BME280_humidity;BME280_pressure;Samples;Min_cycle;Max_cycle;Signal;HPM_P1;HPM_P2
2022/12/27 00:00:16;;;;;;;4.67;1.50;;;;;7.80;96705.00;;;;8336399;28;20273;-77
2022/12/27 00:04:21;;;;;;;4.93;1.47;;;;;7.80;96711.00;;;;8336149;28;20229;-77
2022/12/27 00:08:55;;;;;;;4.70;1.43;;;;;7.70;96726.00;;;;8319055;28;20267;-77
2022/12/27 00:13:04;;;;;;;2.47;1.40;;;;;7.50;96727.00;;;;8335626;28;20217;-77
2022/12/27 00:17:12;;;;;;;5.57;1.60;;;;;7.40;96759.00;;;;8335076;28;20194;-75
2022/12/27 00:21:47;;;;;;;1.60;1.20;;;;;7.20;96780.00;;;;8318439;28;20210;-76
2022/12/27 00:25:51;;;;;;;2.10;1.00;;;;;7.10;96804.00;;;;8334687;28;20221;-76
2022/12/27 00:30:27;;;;;;;1.00;0.90;;;;;6.90;96779.00;;;;8335167;28;20657;-75
2022/12/27 00:34:30;;;;;;;1.00;1.00;;;;;6.60;96796.00;;;;8335824;28;20231;-74
2022/12/27 00:39:14;;;;;;;0.80;0.80;;;;;6.40;96807.00;;;;8334816;28;20197;-75
2022/12/27 00:43:18;;;;;;;0.67;0.67;;;;;6.20;96814.00;;;;8335952;28;20194;-75
2022/12/27 00:47:22;;;;;;;1.73;0.80;;;;;6.10;96829.00;;;;8335338;28;20220;-75
2022/12/27 00:51:57;;;;;;;1.00;1.00;;;;;5.80;96844.00;;;;8316815;28;20198;-75
2022/12/27 00:56:07;;;;;;;1.00;1.00;;;;;5.70;96845.00;;;;8336012;28;20200;-75
2022/12/27 01:00:47;;;;;;;2.40;1.27;;;;;5.50;96865.00;;;;8334002;28;20241;-75
2022/12/27 01:04:53;;;;;;;3.30;0.90;;;;;5.30;96871.00;;;;8334343;28;20702;-75
2022/12/27 01:08:57;;;;;;;6.77;1.10;;;;;5.20;96863.00;;;;8334755;28;20193;-75
2022/12/27 01:13:33;;;;;;;4.73;1.30;;;;;5.10;96890.00;;;;8333257;28;20247;-75
2022/12/27 01:17:48;;;;;;;0.90;0.90;;;;;5.00;96891.00;;;;8334262;28;20204;-75
2022/12/27 01:21:53;;;;;;;1.77;0.90;;;;;4.90;96896.00;;;;8333427;28;20201;-76
2022/12/27 01:26:28;;;;;;;1.00;0.90;;;;;4.90;96901.00;;;;8333387;28;20315;-77
2022/12/27 01:30:31;;;;;;;1.10;1.00;;;;;4.80;96916.00;;;;8332268;28;20273;-77
2022/12/27 01:34:37;;;;;;;1.10;1.03;;;;;4.80;96928.00;;;;8316266;28;20602;-77
2022/12/27 01:38:46;;;;;;;1.50;1.00;;;;;4.70;96928.00;;;;8333624;28;20247;-77
2022/12/27 01:43:20;;;;;;;1.03;1.03;;;;;4.80;96946.00;;;;8332765;28;20686;-77
2022/12/27 01:47:45;;;;;;;0.93;0.93;;;;;4.70;96945.00;;;;8331891;28;20229;-77
2022/12/27 01:52:06;;;;;;;1.10;1.00;;;;;4.60;96961.00;;;;8332416;28;20251;-78
2022/12/27 01:56:18;;;;;;;1.00;1.00;;;;;4.50;96964.00;;;;8331520;28;20193;-78
2022/12/27 02:00:46;;;;;;;4.33;1.10;;;;;4.40;96970.00;;;;8332346;28;20197;-78
2022/12/27 02:04:52;;;;;;;2.67;1.10;;;;;4.30;96970.00;;;;8332219;28;20217;-78
2022/12/27 02:09:02;;;;;;;3.60;1.17;;;;;4.20;96981.00;;;;8332357;28;20227;-79
2022/12/27 02:13:36;;;;;;;1.47;1.17;;;;;4.10;97000.00;;;;8331972;28;20630;-79
2022/12/27 02:17:39;;;;;;;1.33;1.23;;;;;4.00;97017.00;;;;8332265;28;20197;-80
2022/12/27 02:22:13;;;;;;;1.30;1.20;;;;;4.00;97025.00;;;;8331151;28;20204;-79
2022/12/27 02:26:59;;;;;;;7.87;1.40;;;;;4.10;97032.00;;;;8332083;28;20229;-79
2022/12/27 02:31:11;;;;;;;4.43;1.20;;;;;4.20;97032.00;;;;8331409;28;20597;-79
2022/12/27 02:35:17;;;;;;;1.80;1.27;;;;;4.20;97031.00;;;;8331747;28;20594;-79
2022/12/27 02:39:51;;;;;;;1.00;1.00;;;;;4.30;97049.00;;;;8330370;28;20666;-79
2022/12/27 02:53:07;;;;;;;2.83;1.50;;;;;4.10;97052.00;;;;8331689;28;20200;-79
2022/12/27 02:57:31;;;;;;;1.43;1.17;;;;;4.00;97061.00;;;;8331043;28;20656;-79
2022/12/27 03:06:42;;;;;;;1.80;1.30;;;;;3.70;97084.00;;;;8297912;28;20240;-79
2022/12/27 03:33:12;;;;;;;1.37;1.27;;;;;3.00;97104.00;;;;8311466;28;20205;-79
2022/12/27 03:46:35;;;;;;;6.00;1.60;;;;;2.70;97121.00;;;;8316046;28;20230;-79
2022/12/27 03:50:48;;;;;;;2.23;1.43;;;;;2.60;97134.00;;;;8315564;28;20286;-78
2022/12/27 03:54:53;;;;;;;7.23;1.40;;;;;2.50;97136.00;;;;8308455;28;20208;-79
2022/12/27 03:59:02;;;;;;;1.93;1.30;;;;;2.50;97137.00;;;;8319893;28;20203;-79
2022/12/27 04:03:08;;;;;;;1.90;1.20;;;;;2.50;97141.00;;;;8319031;28;20274;-78
2022/12/27 04:07:15;;;;;;;2.30;1.40;;;;;2.50;97138.00;;;;8315000;28;22096;-78
2022/12/27 04:37:28;;;;;;;5.47;1.40;;;;;2.00;97175.00;;;;8254497;28;20199;-76
2022/12/27 05:03:30;;;;;;;2.27;1.40;;;;;1.30;97190.00;;;;8246672;28;20236;-76
2022/12/27 05:16:16;;;;;;;2.63;1.40;;;;;1.10;97194.00;;;;8252181;28;20242;-75
2022/12/27 05:20:22;;;;;;;1.40;1.30;;;;;1.20;97197.00;;;;8244778;28;20641;-75
2022/12/27 05:28:52;;;;;;;5.27;1.73;;;;;1.20;97199.00;;;;8245784;28;20231;-76
2022/12/27 05:32:59;;;;;;;4.30;1.80;;;;;1.20;97208.00;;;;8249897;28;20197;-75
2022/12/27 05:37:03;;;;;;;7.07;1.80;;;;;1.30;97208.00;;;;8250690;28;20204;-75
2022/12/27 05:41:16;;;;;;;3.90;1.50;;;;;1.40;97214.00;;;;8250608;28;20256;-75
2022/12/27 05:45:22;;;;;;;2.60;1.60;;;;;1.50;97227.00;;;;8246155;28;20245;-75
2022/12/27 05:49:30;;;;;;;2.00;1.40;;;;;1.60;97237.00;;;;8250781;28;20268;-74
2022/12/27 05:53:36;;;;;;;3.13;1.30;;;;;1.60;97231.00;;;;8248231;28;20208;-74
2022/12/27 05:57:42;;;;;;;1.97;1.50;;;;;1.60;97222.00;;;;8249896;28;20209;-74
2022/12/27 06:01:46;;;;;;;4.00;1.80;;;;;1.60;97229.00;;;;8241818;28;20724;-74
2022/12/27 06:05:52;;;;;;;3.37;1.30;;;;;1.60;97225.00;;;;8240480;28;20209;-74
2022/12/27 06:09:57;;;;;;;1.40;1.30;;;;;1.70;97227.00;;;;8244395;28;20230;-74
2022/12/27 06:14:05;;;;;;;3.27;1.50;;;;;1.70;97221.00;;;;8212566;28;20711;-74
2022/12/27 06:18:08;;;;;;;2.70;1.50;;;;;1.70;97230.00;;;;8241459;28;20851;-75
2022/12/27 06:22:12;;;;;;;1.40;1.30;;;;;1.80;97241.00;;;;8246901;28;20211;-75
2022/12/27 06:26:18;;;;;;;2.07;1.20;;;;;1.80;97253.00;;;;8240829;28;20312;-73
2022/12/27 06:30:27;;;;;;;8.57;1.80;;;;;1.80;97259.00;;;;8245802;28;20307;-74
2022/12/27 06:34:37;;;;;;;3.53;1.67;;;;;1.70;97264.00;;;;8246307;28;20258;-74
2022/12/27 06:38:42;;;;;;;5.70;1.77;;;;;1.70;97274.00;;;;8245383;28;20286;-73
2022/12/27 06:42:45;;;;;;;3.23;1.87;;;;;1.60;97277.00;;;;8246381;28;20199;-74
2022/12/27 06:46:49;;;;;;;1.90;1.40;;;;;1.60;97276.00;;;;8243011;28;20208;-74
2022/12/27 06:50:53;;;;;;;3.50;1.60;;;;;1.60;97282.00;;;;8248690;28;20847;-74
2022/12/27 06:54:56;;;;;;;2.67;1.60;;;;;1.60;97279.00;;;;8246778;28;20202;-73
2022/12/27 06:59:00;;;;;;;1.87;1.57;;;;;1.70;97275.00;;;;8241084;28;20272;-75
2022/12/27 07:03:11;;;;;;;4.70;1.40;;;;;1.70;97281.00;;;;8249124;28;20232;-73
2022/12/27 07:07:16;;;;;;;2.60;1.60;;;;;1.70;97280.00;;;;8246559;28;20865;-74
2022/12/27 07:11:22;;;;;;;3.33;1.77;;;;;1.70;97283.00;;;;8247066;28;20214;-73
2022/12/27 07:15:25;;;;;;;7.17;1.43;;;;;1.70;97284.00;;;;8246761;28;20195;-73
2022/12/27 07:19:32;;;;;;;3.50;1.33;;;;;1.70;97291.00;;;;8240502;28;20246;-72
2022/12/27 07:23:36;;;;;;;3.23;1.70;;;;;1.80;97296.00;;;;8244573;28;20201;-72
2022/12/27 07:27:39;;;;;;;2.20;1.70;;;;;1.80;97289.00;;;;8247954;28;20290;-72
2022/12/27 07:31:47;;;;;;;6.23;1.70;;;;;1.80;97298.00;;;;8251422;28;20197;-73
2022/12/27 07:36:00;;;;;;;6.33;1.80;;;;;1.80;97294.00;;;;8242426;28;20568;-73
2022/12/27 07:40:09;;;;;;;1.43;1.43;;;;;1.90;97293.00;;;;8229912;28;20209;-72
2022/12/27 07:44:12;;;;;;;4.00;1.67;;;;;1.90;97300.00;;;;8249457;28;20195;-73
2022/12/27 07:48:17;;;;;;;4.67;1.30;;;;;2.00;97299.00;;;;8245009;28;20235;-73
2022/12/27 07:52:25;;;;;;;8.80;1.50;;;;;2.00;97312.00;;;;8250888;28;20231;-73
2022/12/27 07:56:29;;;;;;;6.77;1.67;;;;;2.10;97312.00;;;;8248206;28;20537;-73
2022/12/27 08:00:35;;;;;;;3.80;2.00;;;;;2.10;97321.00;;;;8246572;28;20209;-72
2022/12/27 08:04:38;;;;;;;7.57;2.07;;;;;2.10;97319.00;;;;8249179;28;20241;-72
2022/12/27 08:08:47;;;;;;;3.87;2.00;;;;;2.10;97324.00;;;;8246893;28;20320;-73
2022/12/27 08:12:50;;;;;;;6.23;1.97;;;;;2.20;97331.00;;;;8247683;28;20244;-74
2022/12/27 08:16:53;;;;;;;5.30;1.80;;;;;2.20;97333.00;;;;8244396;28;20250;-75
2022/12/27 08:20:57;;;;;;;4.70;1.83;;;;;2.30;97323.00;;;;8242372;28;20199;-74
2022/12/27 08:25:02;;;;;;;4.70;1.80;;;;;2.30;97330.00;;;;8248211;28;20217;-74
2022/12/27 08:29:05;;;;;;;6.20;1.90;;;;;2.40;97326.00;;;;8245315;28;20234;-74
2022/12/27 08:33:11;;;;;;;5.13;2.13;;;;;2.50;97337.00;;;;8225038;28;20672;-75
2022/12/27 08:37:17;;;;;;;11.00;1.90;;;;;2.60;97346.00;;;;8250590;28;20200;-74
2022/12/27 08:41:21;;;;;;;1.93;1.83;;;;;2.70;97348.00;;;;8237944;28;20210;-75
2022/12/27 08:46:00;;;;;;;5.83;2.07;;;;;2.70;97356.00;;;;8235404;28;20196;-78
2022/12/27 08:50:06;;;;;;;5.57;1.87;;;;;2.80;97365.00;;;;8237040;28;20324;-80
2022/12/27 08:54:09;;;;;;;7.97;2.10;;;;;2.80;97357.00;;;;8236908;28;20202;-78
2022/12/27 08:58:50;;;;;;;5.37;2.43;;;;;2.90;97355.00;;;;8237193;28;20710;-78
2022/12/27 09:08:25;;;;;;;5.07;2.33;;;;;3.20;97375.00;;;;8236241;28;20281;-81
2022/12/27 09:13:02;;;;;;;9.53;2.33;;;;;3.30;97374.00;;;;8236069;28;20201;-82
2022/12/27 09:17:43;;;;;;;3.07;2.30;;;;;3.40;97378.00;;;;8233035;28;20250;-80
2022/12/27 09:22:14;;;;;;;5.93;2.50;;;;;3.50;97384.00;;;;8236007;28;20206;-82
2022/12/27 09:26:51;;;;;;;7.13;2.50;;;;;3.70;97373.00;;;;8234959;28;20205;-82
2022/12/27 09:31:31;;;;;;;2.40;2.20;;;;;3.70;97370.00;;;;8218088;28;20231;-82
2022/12/27 09:35:35;;;;;;;6.60;2.40;;;;;3.80;97377.00;;;;8236096;28;20197;-81
2022/12/27 09:39:40;;;;;;;5.90;2.40;;;;;3.90;97378.00;;;;8235247;28;20195;-82
2022/12/27 09:43:55;;;;;;;6.57;2.07;;;;;3.90;97367.00;;;;8235842;28;20198;-81
2022/12/27 09:48:25;;;;;;;9.63;2.80;;;;;4.00;97367.00;;;;8233348;28;20655;-82
2022/12/27 09:53:00;;;;;;;5.37;2.23;;;;;4.10;97356.00;;;;8233786;28;20187;-83
2022/12/27 09:57:34;;;;;;;10.47;2.20;;;;;4.20;97354.00;;;;8235615;28;20615;-82
2022/12/27 10:02:06;;;;;;;6.83;3.13;;;;;4.20;97361.00;;;;8230858;28;20233;-83
2022/12/27 10:06:46;;;;;;;6.03;2.40;;;;;4.30;97362.00;;;;8234760;28;20390;-85
2022/12/27 10:11:41;;;;;;;6.10;2.43;;;;;4.50;97358.00;;;;8236088;28;20231;-86
2022/12/27 10:16:12;;;;;;;4.43;2.10;;;;;4.50;97370.00;;;;8230981;28;20231;-80
2022/12/27 10:20:48;;;;;;;10.17;3.67;;;;;4.60;97362.00;;;;8233999;28;20198;-85
2022/12/27 10:25:17;;;;;;;3.33;2.50;;;;;4.60;97363.00;;;;8235045;28;20577;-84
2022/12/27 10:29:48;;;;;;;4.73;2.53;;;;;4.70;97367.00;;;;8232744;28;20833;-84
2022/12/27 10:33:52;;;;;;;6.17;2.53;;;;;4.80;97358.00;;;;8234840;28;20199;-83
2022/12/27 10:38:31;;;;;;;11.83;2.70;;;;;4.80;97354.00;;;;8233795;28;20272;-83
2022/12/27 10:43:03;;;;;;;5.53;1.97;;;;;4.90;97352.00;;;;8233552;28;20237;-82
2022/12/27 10:47:40;;;;;;;4.93;2.47;;;;;4.90;97350.00;;;;8233856;28;20227;-82
2022/12/27 10:52:20;;;;;;;2.53;1.83;;;;;5.00;97352.00;;;;8232712;28;20624;-79
2022/12/27 10:56:27;;;;;;;5.53;2.50;;;;;5.10;97343.00;;;;8235843;28;20270;-79
2022/12/27 11:00:31;;;;;;;3.87;1.97;;;;;5.20;97333.00;;;;8232961;28;20199;-78
2022/12/27 11:04:34;;;;;;;6.47;2.80;;;;;5.30;97334.00;;;;8241068;28;20239;-79
2022/12/27 11:09:16;;;;;;;5.03;1.77;;;;;5.40;97330.00;;;;8238979;28;20226;-77
2022/12/27 11:13:21;;;;;;;5.90;2.33;;;;;5.40;97334.00;;;;8240438;28;20533;-78
2022/12/27 11:17:38;;;;;;;8.03;2.70;;;;;5.50;97336.00;;;;8239700;28;20199;-78
2022/12/27 11:22:07;;;;;;;8.53;2.50;;;;;5.60;97346.00;;;;8240360;28;20286;-77
2022/12/27 11:26:41;;;;;;;5.63;2.00;;;;;5.70;97334.00;;;;8240035;28;20200;-77
2022/12/27 11:31:15;;;;;;;8.93;2.30;;;;;5.70;97329.00;;;;8239578;28;20675;-77
2022/12/27 11:35:52;;;;;;;8.63;2.40;;;;;5.80;97325.00;;;;8238365;28;20200;-76
2022/12/27 11:40:13;;;;;;;4.83;2.07;;;;;5.80;97316.00;;;;8238629;28;20294;-78
2022/12/27 11:44:36;;;;;;;5.67;2.27;;;;;6.00;97308.00;;;;8239026;28;20273;-78
2022/12/27 11:49:11;;;;;;;15.40;2.23;;;;;6.10;97302.00;;;;8234337;28;20199;-78
2022/12/27 11:54:00;;;;;;;4.93;2.20;;;;;6.30;97307.00;;;;8235348;28;20328;-77
2022/12/27 11:58:38;;;;;;;4.63;1.87;;;;;6.60;97313.00;;;;8238476;28;20262;-77
2022/12/27 12:03:25;;;;;;;7.77;2.40;;;;;6.70;97311.00;;;;8239765;28;20743;-79
2022/12/27 12:08:12;;;;;;;9.60;2.00;;;;;7.00;97315.00;;;;8235099;28;20210;-78
2022/12/27 12:13:00;;;;;;;2.13;1.80;;;;;7.30;97319.00;;;;8241200;28;20356;-78
2022/12/27 12:17:46;;;;;;;3.23;1.90;;;;;7.50;97307.00;;;;8238064;28;20266;-80
2022/12/27 12:22:16;;;;;;;4.53;2.10;;;;;7.60;97317.00;;;;8237689;28;20641;-80
2022/12/27 12:26:54;;;;;;;6.00;1.83;;;;;7.60;97309.00;;;;8237506;28;20192;-80
2022/12/27 12:31:28;;;;;;;6.10;1.83;;;;;7.70;97312.00;;;;8237923;28;20311;-80
2022/12/27 12:35:53;;;;;;;3.27;1.70;;;;;7.80;97304.00;;;;8236878;28;20270;-78
2022/12/27 12:40:23;;;;;;;4.63;1.60;;;;;7.50;97300.00;;;;8237398;28;20191;-78
2022/12/27 12:44:54;;;;;;;6.57;1.70;;;;;7.30;97299.00;;;;8236121;28;20802;-77
2022/12/27 12:49:20;;;;;;;12.17;1.70;;;;;7.30;97293.00;;;;8237468;28;20294;-77
2022/12/27 12:53:38;;;;;;;5.10;1.50;;;;;7.30;97285.00;;;;8236729;28;20680;-78
2022/12/27 12:58:15;;;;;;;5.00;1.80;;;;;7.30;97292.00;;;;8236437;28;20200;-77
2022/12/27 13:02:38;;;;;;;8.23;1.80;;;;;7.20;97286.00;;;;8237552;28;20251;-77
2022/12/27 13:12:19;;;;;;;6.40;1.50;;;;;6.90;97285.00;;;;8236319;28;20292;-77
2022/12/27 13:16:53;;;;;;;5.20;1.23;;;;;6.90;97277.00;;;;8236516;28;20192;-79
2022/12/27 13:21:37;;;;;;;5.23;1.60;;;;;6.90;97285.00;;;;8235778;28;20295;-78
2022/12/27 13:25:47;;;;;;;5.13;1.60;;;;;6.90;97290.00;;;;8232024;28;20258;-76
2022/12/27 13:30:20;;;;;;;2.03;1.40;;;;;7.00;97290.00;;;;8236934;28;20340;-77
2022/12/27 13:34:44;;;;;;;7.63;1.70;;;;;7.10;97287.00;;;;8234288;28;20235;-76
2022/12/27 13:39:08;;;;;;;4.97;1.50;;;;;7.20;97290.00;;;;8234533;28;20199;-82
2022/12/27 13:44:02;;;;;;;4.63;1.27;;;;;7.10;97287.00;;;;8235074;28;20203;-83
2022/12/27 13:48:20;;;;;;;5.53;1.37;;;;;7.20;97287.00;;;;8235094;28;20200;-83
2022/12/27 13:52:51;;;;;;;4.33;1.67;;;;;7.10;97273.00;;;;8235923;28;20227;-84
2022/12/27 13:57:17;;;;;;;5.17;1.50;;;;;7.10;97274.00;;;;8234897;28;20275;-83
2022/12/27 14:01:44;;;;;;;3.27;1.70;;;;;7.00;97294.00;;;;8235497;28;20874;-86
2022/12/27 14:06:17;;;;;;;6.10;1.77;;;;;7.00;97282.00;;;;8234871;28;20559;-85
2022/12/27 14:10:38;;;;;;;10.27;2.03;;;;;7.00;97297.00;;;;8235114;28;20223;-84
2022/12/27 14:14:47;;;;;;;6.33;1.63;;;;;7.10;97296.00;;;;8234580;28;20663;-84
2022/12/27 14:19:18;;;;;;;1.90;1.50;;;;;7.00;97316.00;;;;8234478;28;20196;-84
2022/12/27 14:23:54;;;;;;;3.83;1.53;;;;;6.80;97312.00;;;;8234299;28;20529;-84
2022/12/27 14:28:36;;;;;;;3.40;1.50;;;;;6.70;97314.00;;;;8235022;28;20247;-84
2022/12/27 14:33:42;;;;;;;3.93;1.53;;;;;6.50;97316.00;;;;8156235;28;20231;-87
2022/12/27 14:38:28;;;;;;;5.93;1.80;;;;;6.40;97315.00;;;;8190093;28;20199;-80
2022/12/27 14:43:22;;;;;;;4.17;1.63;;;;;6.30;97322.00;;;;8231287;28;20199;-83
2022/12/27 14:48:08;;;;;;;7.13;1.57;;;;;6.20;97318.00;;;;8232732;28;20529;-83
2022/12/27 14:52:41;;;;;;;3.47;1.47;;;;;6.10;97312.00;;;;8233076;28;20262;-84
2022/12/27 14:56:55;;;;;;;5.17;1.60;;;;;6.00;97311.00;;;;8233647;28;20199;-84
2022/12/27 15:01:29;;;;;;;9.03;2.20;;;;;5.80;97312.00;;;;8233668;28;20200;-83
2022/12/27 15:05:54;;;;;;;4.43;2.10;;;;;5.70;97310.00;;;;8234272;28;20625;-83
2022/12/27 15:10:04;;;;;;;6.77;2.67;;;;;5.60;97298.00;;;;8233720;28;20298;-83
2022/12/27 15:14:42;;;;;;;4.77;2.07;;;;;5.40;97308.00;;;;8233694;28;20187;-83
2022/12/27 15:19:10;;;;;;;2.83;2.30;;;;;5.30;97315.00;;;;8233568;28;20196;-83
2022/12/27 15:23:24;;;;;;;3.83;2.10;;;;;5.10;97309.00;;;;8233649;28;20250;-83
2022/12/27 15:27:33;;;;;;;2.97;2.00;;;;;5.10;97312.00;;;;8232458;28;20327;-83
2022/12/27 15:31:49;;;;;;;5.70;2.00;;;;;5.00;97318.00;;;;8232732;28;20275;-82
2022/12/27 15:36:13;;;;;;;5.90;2.07;;;;;4.80;97312.00;;;;8216538;28;20621;-83
2022/12/27 15:40:36;;;;;;;3.57;2.20;;;;;4.70;97312.00;;;;8230741;28;20259;-83
2022/12/27 15:44:50;;;;;;;2.20;2.00;;;;;4.60;97318.00;;;;8232401;28;20206;-83
2022/12/27 15:49:27;;;;;;;4.97;2.30;;;;;4.30;97314.00;;;;8217906;28;20258;-83
2022/12/27 15:54:22;;;;;;;21.77;7.60;;;;;4.10;97315.00;;;;8232197;28;20238;-85
2022/12/27 15:58:26;;;;;;;7.13;4.00;;;;;3.90;97304.00;;;;8108187;29;20282;-86
2022/12/27 16:02:36;;;;;;;11.57;6.73;;;;;3.70;97297.00;;;;8168165;28;20855;-81
2022/12/27 16:06:54;;;;;;;10.57;4.43;;;;;3.60;97294.00;;;;8238892;28;20544;-80
2022/12/27 16:11:40;;;;;;;90.07;66.80;;;;;3.60;97307.00;;;;8238525;28;20227;-80
2022/12/27 16:15:51;;;;;;;4.00;2.63;;;;;3.50;97303.00;;;;8238568;28;20261;-81
2022/12/27 16:20:21;;;;;;;3.27;2.20;;;;;3.40;97291.00;;;;8237686;28;20202;-81
2022/12/27 16:24:55;;;;;;;5.03;2.97;;;;;3.20;97300.00;;;;8238649;28;20637;-80
2022/12/27 16:29:47;;;;;;;5.10;2.60;;;;;3.00;97305.00;;;;8238111;28;20250;-80
2022/12/27 16:34:14;;;;;;;5.53;3.00;;;;;2.90;97297.00;;;;8236699;28;20281;-81
2022/12/27 16:38:46;;;;;;;5.00;2.90;;;;;2.90;97295.00;;;;8236496;28;20202;-83
2022/12/27 16:43:31;;;;;;;4.43;3.03;;;;;2.70;97294.00;;;;8237465;28;20241;-84
2022/12/27 16:48:16;;;;;;;6.23;2.90;;;;;2.60;97293.00;;;;8238012;28;20203;-83
2022/12/27 16:52:50;;;;;;;13.17;8.37;;;;;2.50;97289.00;;;;8237613;28;20297;-83
2022/12/27 16:57:33;;;;;;;8.17;4.10;;;;;2.50;97285.00;;;;8237061;28;20202;-84
2022/12/27 17:02:03;;;;;;;7.00;4.13;;;;;2.50;97298.00;;;;8217210;28;20672;-83
2022/12/27 17:11:43;;;;;;;8.87;4.63;;;;;2.40;97301.00;;;;8238074;28;20605;-83
2022/12/27 17:16:21;;;;;;;7.23;3.20;;;;;2.30;97293.00;;;;8236603;28;20198;-83
2022/12/27 17:20:54;;;;;;;6.27;3.50;;;;;2.10;97296.00;;;;8237517;28;20593;-83
2022/12/27 17:25:37;;;;;;;6.77;3.80;;;;;2.10;97295.00;;;;8235513;28;20205;-82
2022/12/27 17:30:15;;;;;;;9.77;4.90;;;;;2.00;97299.00;;;;8236043;28;20207;-81
2022/12/27 17:34:48;;;;;;;10.80;4.77;;;;;1.90;97299.00;;;;8235787;28;20230;-81
2022/12/27 17:39:25;;;;;;;8.57;4.10;;;;;1.80;97303.00;;;;8236162;28;20197;-81
2022/12/27 17:48:33;;;;;;;9.33;4.50;;;;;1.90;97306.00;;;;8235737;28;20210;-82
2022/12/27 17:57:55;;;;;;;13.93;6.03;;;;;2.00;97281.00;;;;8191261;28;20531;-82
2022/12/27 18:02:26;;;;;;;10.30;4.50;;;;;2.00;97274.00;;;;8235413;28;20221;-82
2022/12/27 18:12:01;;;;;;;9.80;5.07;;;;;1.70;97261.00;;;;8234279;28;20322;-82
2022/12/27 18:16:39;;;;;;;10.57;5.27;;;;;1.60;97259.00;;;;8234655;28;20279;-82
2022/12/27 18:21:20;;;;;;;18.40;8.13;;;;;1.50;97254.00;;;;8234214;28;20615;-83
2022/12/27 18:25:53;;;;;;;19.43;7.73;;;;;1.40;97254.00;;;;8234948;28;20241;-82
2022/12/27 18:30:29;;;;;;;17.47;7.73;;;;;1.40;97261.00;;;;8234900;28;20540;-83
2022/12/27 18:35:05;;;;;;;10.10;4.67;;;;;1.30;97262.00;;;;8234247;28;20224;-83
2022/12/27 18:39:46;;;;;;;11.00;5.00;;;;;1.20;97258.00;;;;8233411;28;20208;-83
2022/12/27 18:44:19;;;;;;;19.00;6.97;;;;;1.20;97257.00;;;;8234831;28;20242;-78
2022/12/27 18:49:00;;;;;;;7.03;3.00;;;;;1.10;97240.00;;;;8233352;28;20188;-77
2022/12/27 18:53:34;;;;;;;3.83;3.23;;;;;1.10;97232.00;;;;8234629;28;20723;-76
2022/12/27 18:57:37;;;;;;;15.47;6.17;;;;;1.00;97220.00;;;;8234583;28;20200;-76
2022/12/27 19:01:43;;;;;;;9.87;4.00;;;;;1.00;97221.00;;;;8233201;28;20220;-76
2022/12/27 19:06:19;;;;;;;27.57;9.10;;;;;1.00;97222.00;;;;8232240;28;20590;-76
2022/12/27 19:10:59;;;;;;;26.47;7.93;;;;;1.00;97231.00;;;;8234488;28;20211;-76
2022/12/27 19:15:37;;;;;;;10.90;5.10;;;;;0.90;97215.00;;;;8232177;28;20253;-76
2022/12/27 19:20:09;;;;;;;15.53;4.60;;;;;0.90;97228.00;;;;8216739;28;20208;-76
2022/12/27 19:29:54;;;;;;;7.73;4.20;;;;;0.70;97220.00;;;;8240158;28;20580;-76
2022/12/27 19:34:20;;;;;;;9.93;4.30;;;;;0.70;97215.00;;;;8238941;28;20294;-76
2022/12/27 19:38:56;;;;;;;6.10;3.83;;;;;0.60;97206.00;;;;8238935;28;20193;-75
2022/12/27 19:43:39;;;;;;;11.17;4.60;;;;;0.60;97200.00;;;;8240141;28;20256;-76
2022/12/27 19:48:14;;;;;;;13.73;5.23;;;;;0.50;97195.00;;;;8238611;28;20610;-76
2022/12/27 19:52:49;;;;;;;12.03;4.13;;;;;0.50;97196.00;;;;8238860;28;20223;-76
2022/12/27 19:57:23;;;;;;;12.60;4.70;;;;;0.50;97197.00;;;;8239935;28;20588;-76
2022/12/27 20:01:57;;;;;;;22.67;6.63;;;;;0.50;97198.00;;;;8238594;28;20255;-76
2022/12/27 20:06:36;;;;;;;17.83;7.93;;;;;0.60;97202.00;;;;8237976;28;20197;-74
2022/12/27 20:11:14;;;;;;;18.13;8.90;;;;;0.70;97207.00;;;;8239285;28;20196;-76
2022/12/27 20:15:57;;;;;;;15.63;7.57;;;;;0.60;97203.00;;;;8238949;28;20204;-76
2022/12/27 20:20:27;;;;;;;20.47;8.63;;;;;0.50;97199.00;;;;8237988;28;20329;-75
2022/12/27 20:24:33;;;;;;;15.20;8.07;;;;;0.50;97208.00;;;;8239044;28;20212;-76
2022/12/27 20:29:08;;;;;;;20.00;9.13;;;;;0.60;97204.00;;;;8213601;28;20201;-75
2022/12/27 20:33:42;;;;;;;19.27;9.23;;;;;0.50;97200.00;;;;8236924;28;20287;-76
2022/12/27 20:38:19;;;;;;;23.67;9.40;;;;;0.40;97197.00;;;;8236657;28;20705;-77
2022/12/27 20:42:55;;;;;;;23.43;13.03;;;;;0.30;97195.00;;;;8238837;28;20207;-77
2022/12/27 20:47:34;;;;;;;25.03;8.93;;;;;0.30;97188.00;;;;8237876;28;20208;-79
2022/12/27 20:52:08;;;;;;;21.73;9.03;;;;;0.20;97181.00;;;;8236761;28;20272;-83
2022/12/27 20:56:45;;;;;;;20.07;8.73;;;;;0.10;97182.00;;;;8238265;28;20553;-83
2022/12/27 21:01:23;;;;;;;19.40;9.03;;;;;0.10;97173.00;;;;8237531;28;20262;-83
2022/12/27 21:06:04;;;;;;;18.40;9.07;;;;;0.10;97176.00;;;;8237764;28;20205;-83
2022/12/27 21:10:37;;;;;;;16.20;8.17;;;;;0.00;97163.00;;;;8236817;28;20241;-84
2022/12/27 21:15:16;;;;;;;19.00;9.20;;;;;0.00;97178.00;;;;8233755;28;20225;-76
2022/12/27 21:19:50;;;;;;;19.53;9.00;;;;;0.00;97173.00;;;;8237431;28;20201;-83
2022/12/27 21:24:02;;;;;;;21.37;9.57;;;;;0.00;97178.00;;;;8236851;28;20204;-78
2022/12/27 21:28:33;;;;;;;25.27;11.47;;;;;0.00;97166.00;;;;8236250;28;20193;-85
2022/12/27 21:33:10;;;;;;;11.60;6.20;;;;;-0.10;97167.00;;;;8236582;28;20225;-86
2022/12/27 21:37:49;;;;;;;13.40;6.17;;;;;-0.20;97163.00;;;;8236026;28;20709;-85
2022/12/27 21:42:25;;;;;;;15.43;5.43;;;;;-0.20;97158.00;;;;8235271;28;20247;-85
2022/12/27 21:47:02;;;;;;;12.20;5.90;;;;;-0.20;97161.00;;;;8235794;28;20255;-87
2022/12/27 21:51:36;;;;;;;13.10;6.63;;;;;-0.20;97146.00;;;;8235776;28;20200;-86
2022/12/27 21:56:13;;;;;;;11.60;6.30;;;;;-0.20;97156.00;;;;8236032;28;20260;-78
2022/12/27 22:00:49;;;;;;;14.33;6.50;;;;;-0.20;97151.00;;;;8236114;28;20211;-78
2022/12/27 22:05:03;;;;;;;17.17;5.77;;;;;-0.20;97139.00;;;;8235282;28;20247;-77
2022/12/27 22:09:08;;;;;;;14.30;5.33;;;;;-0.20;97140.00;;;;8234448;28;20251;-77
2022/12/27 22:13:47;;;;;;;11.03;5.50;;;;;-0.20;97143.00;;;;8235505;28;20248;-76
2022/12/27 22:17:50;;;;;;;12.97;6.27;;;;;-0.20;97148.00;;;;8235177;28;20200;-76
2022/12/27 22:21:56;;;;;;;14.47;5.67;;;;;-0.20;97154.00;;;;8234261;28;20204;-76
2022/12/27 22:25:59;;;;;;;11.13;5.90;;;;;-0.20;97153.00;;;;8234233;28;20270;-75
2022/12/27 22:30:37;;;;;;;10.83;5.77;;;;;-0.20;97153.00;;;;8234460;28;20197;-75
2022/12/27 22:35:15;;;;;;;11.53;5.13;;;;;-0.20;97147.00;;;;8234083;28;20629;-75
2022/12/27 22:39:22;;;;;;;7.93;5.00;;;;;-0.20;97138.00;;;;8235123;28;20200;-75
2022/12/27 22:43:57;;;;;;;11.37;4.80;;;;;-0.30;97126.00;;;;8234161;28;20629;-75
2022/12/27 22:48:30;;;;;;;9.53;4.83;;;;;-0.30;97107.00;;;;8234661;28;20656;-75
2022/12/27 22:52:33;;;;;;;11.70;4.80;;;;;-0.30;97109.00;;;;8234182;28;20215;-74
2022/12/27 22:57:16;;;;;;;10.10;5.23;;;;;-0.40;97103.00;;;;8233743;28;20268;-74
2022/12/27 23:01:47;;;;;;;9.70;5.17;;;;;-0.30;97118.00;;;;8233465;28;20591;-74
2022/12/27 23:06:25;;;;;;;10.50;5.73;;;;;-0.30;97117.00;;;;8233826;28;20231;-74
2022/12/27 23:10:28;;;;;;;13.27;5.60;;;;;-0.30;97110.00;;;;8234547;28;20251;-74
2022/12/27 23:15:07;;;;;;;9.23;5.13;;;;;-0.30;97102.00;;;;8231381;28;20274;-74
2022/12/27 23:19:41;;;;;;;12.80;5.77;;;;;-0.40;97104.00;;;;8233197;28;20195;-74
2022/12/27 23:23:47;;;;;;;12.77;5.27;;;;;-0.40;97102.00;;;;8233724;28;20696;-74
2022/12/27 23:27:50;;;;;;;10.37;5.40;;;;;-0.30;97104.00;;;;8233052;28;20629;-73
2022/12/27 23:31:56;;;;;;;11.53;5.73;;;;;-0.40;97091.00;;;;8232495;28;20195;-73
2022/12/27 23:35:59;;;;;;;14.20;6.40;;;;;-0.30;97094.00;;;;8232612;28;20226;-73
2022/12/27 23:40:05;;;;;;;9.13;5.80;;;;;-0.30;97080.00;;;;8233797;28;20205;-73
2022/12/27 23:44:38;;;;;;;18.37;6.60;;;;;-0.30;97081.00;;;;8232055;28;20198;-72
2022/12/27 23:48:54;;;;;;;20.13;6.17;;;;;-0.30;97071.00;;;;8232357;28;20203;-72
2022/12/27 23:53:18;;;;;;;12.47;5.63;;;;;-0.30;97074.00;;;;8232878;28;20252;-72
2022/12/27 23:57:23;;;;;;;11.23;6.53;;;;;-0.30;97068.00;;;;8233165;28;20278;-72
